createdAt,value
2022-12-27T00:02:18.405Z,0.63
2022-12-27T00:04:45.970Z,1.00
2022-12-27T00:07:13.737Z,0.60
2022-12-27T00:09:41.226Z,1.05
2022-12-27T00:12:09.200Z,0.73
2022-12-27T00:14:36.758Z,0.60
2022-12-27T00:17:05.570Z,0.80
2022-12-27T00:19:33.132Z,0.80
2022-12-27T00:22:00.695Z,1.23
2022-12-27T00:24:28.188Z,0.90
2022-12-27T00:26:55.696Z,0.85
2022-12-27T00:29:23.197Z,1.00
2022-12-27T00:31:50.875Z,0.60
2022-12-27T00:34:19.961Z,1.27
2022-12-27T00:36:47.434Z,1.73
2022-12-27T00:39:15.955Z,0.90
2022-12-27T00:41:43.483Z,1.15
2022-12-27T00:44:11.020Z,1.00
2022-12-27T00:46:38.615Z,1.10
2022-12-27T00:49:06.131Z,1.35
2022-12-27T00:51:35.080Z,1.38
2022-12-27T00:54:02.583Z,1.35
2022-12-27T00:56:31.534Z,1.10
2022-12-27T00:59:00.794Z,0.98
2022-12-27T01:01:32.238Z,0.88
2022-12-27T01:03:59.922Z,0.80
2022-12-27T01:06:29.318Z,0.70
2022-12-27T01:08:58.861Z,0.60
2022-12-27T01:11:28.369Z,0.65
2022-12-27T01:13:56.334Z,0.40
2022-12-27T01:16:25.582Z,0.57
2022-12-27T01:18:53.502Z,0.90
2022-12-27T01:21:22.826Z,0.63
2022-12-27T01:23:50.537Z,0.80
2022-12-27T01:26:22.286Z,0.65
2022-12-27T01:28:50.211Z,0.75
2022-12-27T01:31:20.164Z,0.60
2022-12-27T01:33:48.646Z,0.70
2022-12-27T01:36:18.014Z,0.45
2022-12-27T01:38:47.965Z,0.60
2022-12-27T01:41:35.673Z,0.73
2022-12-27T01:44:36.439Z,0.55
2022-12-27T01:47:12.762Z,0.47
2022-12-27T01:49:41.599Z,0.63
2022-12-27T01:52:11.613Z,1.23
2022-12-27T01:54:39.337Z,0.68
2022-12-27T01:57:07.603Z,0.65
2022-12-27T01:59:35.687Z,0.70
2022-12-27T02:02:05.579Z,0.40
2022-12-27T02:04:34.652Z,1.00
2022-12-27T02:07:02.750Z,0.40
2022-12-27T02:09:36.284Z,0.52
2022-12-27T02:12:07.909Z,0.57
2022-12-27T02:14:43.593Z,0.43
2022-12-27T02:17:15.213Z,0.73
2022-12-27T02:19:50.841Z,0.50
2022-12-27T02:23:06.567Z,0.77
2022-12-27T02:25:56.485Z,0.57
2022-12-27T02:28:41.569Z,0.40
2022-12-27T02:31:15.930Z,0.52
2022-12-27T02:33:47.762Z,0.50
2022-12-27T02:36:20.367Z,1.07
2022-12-27T02:38:53.025Z,0.30
2022-12-27T02:41:38.822Z,0.70
2022-12-27T02:44:25.484Z,0.30
2022-12-27T02:47:10.656Z,0.32
2022-12-27T02:49:58.032Z,0.50
2022-12-27T02:52:58.653Z,0.30
2022-12-27T02:56:19.348Z,0.40
2022-12-27T02:59:00.212Z,0.35
2022-12-27T03:02:01.355Z,0.60
2022-12-27T03:04:46.949Z,0.63
2022-12-27T03:07:26.682Z,0.63
2022-12-27T03:10:26.328Z,0.40
2022-12-27T03:13:18.422Z,0.40
2022-12-27T03:15:58.964Z,0.75
2022-12-27T03:18:36.776Z,0.47
2022-12-27T03:21:24.850Z,0.43
2022-12-27T03:24:13.573Z,0.50
2022-12-27T03:26:47.273Z,0.40
2022-12-27T03:29:34.784Z,0.70
2022-12-27T03:32:24.884Z,0.52
2022-12-27T03:34:59.909Z,0.60
2022-12-27T03:37:49.067Z,0.52
2022-12-27T03:40:21.866Z,0.70
2022-12-27T03:46:11.810Z,0.70
2022-12-27T03:48:52.889Z,0.85
2022-12-27T03:51:24.573Z,0.57
2022-12-27T03:53:57.420Z,0.43
2022-12-27T03:58:53.904Z,0.38
2022-12-27T04:01:21.504Z,0.63
2022-12-27T04:03:49.135Z,1.00
2022-12-27T04:06:16.743Z,0.80
2022-12-27T04:09:03.446Z,0.73
2022-12-27T04:11:48.973Z,0.60
2022-12-27T04:14:34.224Z,1.02
2022-12-27T04:17:19.592Z,0.52
2022-12-27T04:20:04.955Z,0.88
2022-12-27T04:22:50.689Z,0.65
2022-12-27T04:25:37.330Z,0.80
2022-12-27T04:28:22.635Z,0.50
2022-12-27T04:31:08.146Z,0.57
2022-12-27T04:33:53.518Z,0.65
2022-12-27T04:36:21.068Z,0.60
2022-12-27T04:38:48.632Z,0.70
2022-12-27T04:41:35.270Z,0.50
2022-12-27T04:44:20.652Z,0.60
2022-12-27T04:47:06.058Z,0.90
2022-12-27T04:49:52.582Z,0.60
2022-12-27T04:52:39.428Z,0.70
2022-12-27T04:55:15.258Z,0.52
2022-12-27T04:57:44.089Z,0.77
2022-12-27T05:00:30.971Z,0.90
2022-12-27T05:02:59.512Z,0.60
2022-12-27T05:05:27.397Z,0.88
2022-12-27T05:08:12.907Z,1.33
2022-12-27T05:10:58.345Z,0.50
2022-12-27T05:13:44.881Z,0.70
2022-12-27T05:16:12.425Z,0.93
2022-12-27T05:18:39.952Z,0.60
2022-12-27T05:21:08.447Z,0.50
2022-12-27T05:23:54.009Z,1.02
2022-12-27T05:26:22.275Z,0.60
2022-12-27T05:28:52.510Z,0.73
2022-12-27T05:31:21.034Z,0.73
2022-12-27T05:33:48.831Z,0.60
2022-12-27T05:36:16.457Z,0.98
2022-12-27T05:38:44.134Z,0.70
2022-12-27T05:41:12.007Z,1.23
2022-12-27T05:43:39.528Z,0.47
2022-12-27T05:46:10.389Z,0.75
2022-12-27T05:48:38.256Z,0.50
2022-12-27T05:51:06.847Z,0.65
2022-12-27T05:53:34.451Z,0.80
2022-12-27T05:56:02.014Z,0.52
2022-12-27T05:58:29.921Z,0.65
2022-12-27T06:00:57.820Z,0.45
2022-12-27T06:03:26.729Z,0.70
2022-12-27T06:06:00.790Z,0.73
2022-12-27T06:08:28.717Z,0.40
2022-12-27T06:11:04.233Z,1.25
2022-12-27T06:13:32.134Z,4.47
2022-12-27T06:16:01.303Z,1.58
2022-12-27T06:18:33.221Z,0.63
2022-12-27T06:21:05.388Z,0.60
2022-12-27T06:23:33.639Z,0.43
2022-12-27T06:26:05.568Z,0.77
2022-12-27T06:28:33.191Z,0.80
2022-12-27T06:31:00.757Z,0.68
2022-12-27T06:33:28.369Z,0.68
2022-12-27T06:35:57.640Z,0.80
2022-12-27T06:38:25.227Z,0.90
2022-12-27T06:40:52.739Z,0.80
2022-12-27T06:43:20.253Z,0.93
2022-12-27T06:45:56.812Z,0.85
2022-12-27T06:48:24.667Z,0.68
2022-12-27T06:50:52.233Z,0.80
2022-12-27T06:53:21.344Z,0.80
2022-12-27T06:55:49.273Z,0.60
2022-12-27T06:58:16.863Z,0.75
2022-12-27T07:00:44.369Z,0.75
2022-12-27T07:03:11.927Z,1.38
2022-12-27T07:05:40.450Z,2.10
2022-12-27T07:08:07.944Z,2.85
2022-12-27T07:10:37.421Z,2.20
2022-12-27T07:13:05.148Z,2.20
2022-12-27T07:50:32.585Z,1.67
2022-12-27T07:53:00.124Z,1.70
2022-12-27T07:55:27.716Z,1.77
2022-12-27T07:57:55.220Z,1.40
2022-12-27T08:00:22.793Z,1.92
2022-12-27T08:02:50.355Z,2.28
2022-12-27T08:05:21.437Z,1.38
2022-12-27T08:07:53.919Z,1.30
2022-12-27T08:10:21.375Z,1.20
2022-12-27T08:12:48.873Z,1.60
2022-12-27T08:15:16.437Z,1.05
2022-12-27T08:17:44.021Z,2.50
2022-12-27T08:20:15.013Z,3.70
2022-12-27T08:22:42.537Z,3.17
2022-12-27T08:25:11.616Z,2.20
2022-12-27T08:27:39.144Z,2.20
2022-12-27T08:30:08.252Z,1.67
2022-12-27T08:32:35.745Z,2.28
2022-12-27T08:35:25.208Z,1.58
2022-12-27T08:37:50.766Z,1.60
2022-12-27T08:40:19.870Z,1.15
2022-12-27T08:42:47.778Z,1.33
2022-12-27T08:45:15.792Z,1.25
2022-12-27T08:47:43.330Z,1.40
2022-12-27T08:50:11.249Z,1.98
2022-12-27T08:52:38.807Z,1.73
2022-12-27T08:55:07.337Z,1.10
2022-12-27T08:57:36.211Z,1.15
2022-12-27T09:00:06.750Z,1.45
2022-12-27T09:02:34.295Z,1.50
2022-12-27T09:05:01.849Z,1.52
2022-12-27T09:07:29.472Z,1.75
2022-12-27T09:09:56.996Z,1.73
2022-12-27T09:12:24.514Z,1.75
2022-12-27T09:14:53.351Z,1.50
2022-12-27T09:17:20.943Z,1.20
2022-12-27T09:19:48.653Z,1.05
2022-12-27T09:22:16.222Z,1.58
2022-12-27T09:24:43.855Z,0.85
2022-12-27T09:27:11.369Z,0.70
2022-12-27T09:29:43.002Z,0.80
2022-12-27T09:32:15.343Z,0.90
2022-12-27T09:34:42.842Z,0.80
2022-12-27T09:37:10.311Z,1.25
2022-12-27T09:39:37.858Z,1.58
2022-12-27T09:45:04.463Z,1.05
2022-12-27T09:47:41.952Z,0.70
2022-12-27T09:50:14.832Z,1.42
2022-12-27T09:52:48.908Z,0.80
2022-12-27T09:55:20.517Z,1.10
2022-12-27T09:57:49.061Z,1.02
2022-12-27T10:00:32.802Z,1.10
2022-12-27T10:03:06.313Z,0.75
2022-12-27T10:05:37.456Z,0.80
2022-12-27T10:08:21.017Z,0.80
2022-12-27T10:10:54.318Z,1.20
2022-12-27T10:13:36.147Z,0.95
2022-12-27T10:16:14.921Z,1.05
2022-12-27T10:18:55.184Z,0.90
2022-12-27T10:21:25.561Z,0.68
2022-12-27T10:23:58.528Z,0.75
2022-12-27T10:26:26.036Z,0.68
2022-12-27T10:29:00.244Z,1.23
2022-12-27T10:31:28.509Z,0.60
2022-12-27T10:33:58.285Z,0.60
2022-12-27T10:36:29.212Z,0.70
2022-12-27T10:38:56.820Z,0.90
2022-12-27T10:41:34.361Z,0.90
2022-12-27T10:44:01.866Z,0.52
2022-12-27T10:46:33.361Z,0.68
2022-12-27T10:49:22.027Z,0.70
2022-12-27T10:51:52.135Z,0.50
2022-12-27T10:54:24.522Z,0.68
2022-12-27T10:56:52.298Z,0.73
2022-12-27T10:59:22.082Z,1.10
2022-12-27T11:02:07.879Z,0.90
2022-12-27T11:04:36.771Z,0.70
2022-12-27T11:07:14.546Z,0.80
2022-12-27T11:09:50.383Z,0.63
2022-12-27T11:12:21.053Z,1.85
2022-12-27T11:14:56.642Z,0.80
2022-12-27T11:17:27.139Z,0.75
2022-12-27T11:19:58.437Z,0.50
2022-12-27T11:22:26.912Z,0.75
2022-12-27T11:25:00.194Z,0.90
2022-12-27T11:27:29.780Z,0.75
2022-12-27T11:30:00.347Z,0.55
2022-12-27T11:32:28.046Z,0.70
2022-12-27T11:34:57.833Z,0.98
2022-12-27T11:37:28.132Z,0.63
2022-12-27T11:40:01.708Z,1.00
2022-12-27T11:42:38.387Z,0.70
2022-12-27T11:45:12.275Z,0.70
2022-12-27T11:47:45.084Z,0.63
2022-12-27T11:53:06.835Z,0.50
2022-12-27T11:55:53.784Z,0.57
2022-12-27T11:59:01.317Z,0.55
2022-12-27T12:01:54.780Z,0.60
2022-12-27T12:04:44.966Z,0.45
2022-12-27T12:07:26.267Z,0.60
2022-12-27T12:10:18.490Z,0.50
2022-12-27T12:13:10.941Z,0.60
2022-12-27T12:15:55.538Z,0.73
2022-12-27T12:18:35.158Z,0.95
2022-12-27T12:21:29.637Z,0.70
2022-12-27T12:24:27.711Z,0.55
2022-12-27T12:27:14.997Z,0.60
2022-12-27T12:30:10.114Z,0.60
2022-12-27T12:32:51.312Z,0.70
2022-12-27T12:35:49.621Z,0.60
2022-12-27T12:38:22.207Z,0.50
2022-12-27T12:41:31.535Z,0.55
2022-12-27T12:44:26.167Z,0.77
2022-12-27T12:47:01.357Z,0.75
2022-12-27T12:49:46.000Z,0.90
2022-12-27T12:52:36.230Z,0.82
2022-12-27T12:55:26.701Z,0.70
2022-12-27T12:58:05.721Z,1.33
2022-12-27T13:00:51.506Z,1.02
2022-12-27T13:03:41.643Z,0.68
2022-12-27T13:06:20.940Z,1.40
2022-12-27T13:08:58.260Z,0.93
2022-12-27T13:11:37.341Z,0.90
2022-12-27T13:14:24.666Z,0.75
2022-12-27T13:17:00.403Z,1.40
2022-12-27T13:19:50.634Z,1.33
2022-12-27T13:22:29.856Z,0.95
2022-12-27T13:25:11.590Z,1.05
2022-12-27T13:27:48.390Z,2.90
2022-12-27T13:30:21.151Z,1.55
2022-12-27T13:35:42.208Z,0.80
2022-12-27T13:38:25.768Z,1.02
2022-12-27T13:41:06.844Z,0.98
2022-12-27T13:43:58.464Z,1.15
2022-12-27T13:46:42.890Z,0.90
2022-12-27T13:49:31.302Z,1.30
2022-12-27T13:52:12.744Z,0.95
2022-12-27T13:55:01.597Z,1.20
2022-12-27T13:57:54.429Z,1.70
2022-12-27T14:00:23.404Z,2.00
2022-12-27T14:03:19.950Z,1.20
2022-12-27T14:16:50.536Z,1.20
2022-12-27T14:19:39.676Z,1.20
2022-12-27T14:22:29.435Z,1.35
2022-12-27T14:25:29.579Z,1.10
2022-12-27T14:28:37.221Z,0.90
2022-12-27T14:31:40.615Z,0.95
2022-12-27T14:37:11.119Z,0.90
2022-12-27T14:40:07.107Z,1.35
2022-12-27T14:43:09.377Z,1.27
2022-12-27T14:46:06.129Z,1.30
2022-12-27T14:49:03.973Z,1.90
2022-12-27T14:52:12.451Z,0.98
2022-12-27T14:55:05.180Z,1.23
2022-12-27T14:57:40.376Z,1.07
2022-12-27T15:00:16.844Z,0.80
2022-12-27T15:03:01.392Z,0.77
2022-12-27T15:05:45.774Z,0.90
2022-12-27T15:08:41.030Z,1.40
2022-12-27T15:11:39.051Z,1.60
2022-12-27T15:14:23.148Z,1.40
2022-12-27T15:17:00.130Z,1.42
2022-12-27T15:19:45.640Z,2.00
2022-12-27T15:22:21.447Z,2.78
2022-12-27T15:24:57.009Z,2.85
2022-12-27T15:27:31.534Z,3.08
2022-12-27T15:30:10.659Z,3.35
2022-12-27T15:32:53.045Z,3.05
2022-12-27T15:35:44.568Z,2.05
2022-12-27T15:38:15.101Z,2.00
2022-12-27T15:41:13.986Z,2.20
2022-12-27T15:44:17.043Z,1.38
2022-12-27T15:47:18.140Z,1.48
2022-12-27T15:50:18.675Z,1.95
2022-12-27T15:53:06.028Z,1.38
2022-12-27T15:55:57.593Z,2.25
2022-12-27T15:58:27.117Z,1.63
2022-12-27T16:01:26.202Z,1.60
2022-12-27T16:03:55.077Z,1.65
2022-12-27T16:06:51.420Z,1.58
2022-12-27T16:09:22.764Z,1.52
2022-12-27T16:12:01.474Z,2.05
2022-12-27T16:14:33.587Z,2.67
2022-12-27T16:17:22.640Z,2.78
2022-12-27T16:20:04.536Z,3.33
2022-12-27T16:22:37.002Z,5.93
2022-12-27T16:25:26.989Z,6.63
2022-12-27T16:28:02.203Z,11.02
2022-12-27T16:30:42.614Z,8.57
2022-12-27T16:33:23.317Z,13.38
2022-12-27T16:36:13.907Z,10.15
2022-12-27T16:38:47.549Z,10.30
2022-12-27T16:41:19.623Z,12.55
2022-12-27T16:43:55.291Z,13.23
2022-12-27T16:46:45.128Z,25.67
2022-12-27T16:49:43.879Z,15.02
2022-12-27T16:52:33.862Z,9.43
2022-12-27T16:55:22.607Z,12.15
2022-12-27T16:57:50.647Z,32.00
2022-12-27T17:00:38.602Z,20.63
2022-12-27T17:03:31.312Z,14.00
2022-12-27T17:09:34.092Z,23.55
2022-12-27T17:12:13.414Z,12.55
2022-12-27T17:14:44.179Z,7.85
2022-12-27T17:17:17.613Z,6.13
2022-12-27T17:19:51.513Z,4.72
2022-12-27T17:22:19.761Z,3.65
2022-12-27T17:24:49.343Z,3.92
2022-12-27T17:27:26.492Z,4.22
2022-12-27T17:30:07.584Z,4.38
2022-12-27T17:32:51.916Z,5.03
2022-12-27T17:35:29.237Z,5.05
2022-12-27T17:38:13.086Z,4.75
2022-12-27T17:40:48.037Z,3.60
2022-12-27T17:43:53.369Z,4.32
2022-12-27T17:46:30.996Z,4.00
2022-12-27T17:48:59.039Z,3.88
2022-12-27T17:51:31.165Z,4.30
2022-12-27T17:54:16.171Z,3.85
2022-12-27T17:57:03.583Z,4.18
2022-12-27T17:59:32.660Z,5.05
2022-12-27T18:02:04.902Z,5.45
2022-12-27T18:04:36.519Z,5.45
2022-12-27T18:07:08.517Z,4.32
2022-12-27T18:09:40.658Z,4.72
2022-12-27T18:12:15.927Z,5.30
2022-12-27T18:14:44.659Z,4.30
2022-12-27T18:17:28.788Z,4.40
2022-12-27T18:19:57.310Z,3.53
2022-12-27T18:22:26.479Z,3.50
2022-12-27T18:24:54.001Z,4.20
2022-12-27T18:27:25.526Z,2.65
2022-12-27T18:29:53.077Z,4.20
2022-12-27T18:32:20.738Z,3.92
2022-12-27T18:34:54.951Z,3.75
2022-12-27T18:37:24.695Z,4.03
2022-12-27T18:39:56.162Z,3.90
2022-12-27T18:42:30.932Z,4.38
2022-12-27T18:45:02.497Z,3.58
2022-12-27T18:47:30.329Z,3.70
2022-12-27T18:50:00.417Z,3.45
2022-12-27T18:52:32.909Z,4.20
2022-12-27T18:55:16.513Z,4.55
2022-12-27T18:57:44.541Z,4.93
2022-12-27T19:00:21.558Z,5.07
2022-12-27T19:02:50.363Z,3.92
2022-12-27T19:05:28.386Z,4.50
2022-12-27T19:08:01.775Z,4.90
2022-12-27T19:10:33.430Z,4.68
2022-12-27T19:13:02.393Z,4.68
2022-12-27T19:15:38.743Z,5.03
2022-12-27T19:18:16.640Z,5.10
2022-12-27T19:20:53.367Z,4.75
2022-12-27T19:23:31.013Z,3.67
2022-12-27T19:26:04.494Z,3.95
2022-12-27T19:28:32.911Z,3.75
2022-12-27T19:31:18.055Z,4.05
2022-12-27T19:33:48.751Z,4.72
2022-12-27T19:36:16.746Z,4.28
2022-12-27T19:38:47.977Z,4.97
2022-12-27T19:41:17.079Z,4.60
2022-12-27T19:43:46.214Z,7.07
2022-12-27T19:46:15.028Z,6.47
2022-12-27T19:48:43.705Z,5.30
2022-12-27T19:51:15.952Z,4.93
2022-12-27T19:53:46.298Z,5.07
2022-12-27T19:56:13.810Z,6.50
2022-12-27T19:58:42.670Z,6.47
2022-12-27T20:01:10.309Z,6.20
2022-12-27T20:03:37.916Z,5.88
2022-12-27T20:06:12.866Z,5.55
2022-12-27T20:08:45.534Z,4.90
2022-12-27T20:11:17.134Z,4.75
2022-12-27T20:13:46.004Z,3.35
2022-12-27T20:27:01.712Z,5.80
2022-12-27T20:29:30.940Z,4.88
2022-12-27T20:31:59.070Z,4.70
2022-12-27T20:34:26.688Z,4.15
2022-12-27T20:36:55.370Z,4.03
2022-12-27T20:39:22.918Z,3.65
2022-12-27T20:41:50.436Z,2.80
2022-12-27T20:44:19.287Z,3.40
2022-12-27T20:46:48.553Z,3.53
2022-12-27T20:49:16.069Z,4.00
2022-12-27T20:51:43.587Z,4.28
2022-12-27T20:54:13.202Z,3.78
2022-12-27T20:56:40.726Z,4.10
2022-12-27T20:59:08.284Z,3.83
2022-12-27T21:01:36.113Z,3.63
2022-12-27T21:04:05.903Z,3.75
2022-12-27T21:06:33.411Z,4.05
2022-12-27T21:09:00.985Z,3.20
2022-12-27T21:11:31.593Z,3.17
2022-12-27T21:14:00.231Z,3.28
2022-12-27T21:16:29.263Z,2.70
2022-12-27T21:18:57.219Z,2.95
2022-12-27T21:21:29.010Z,2.90
2022-12-27T21:23:56.879Z,2.65
2022-12-27T21:26:26.487Z,2.67
2022-12-27T21:28:54.087Z,2.92
2022-12-27T21:31:23.141Z,3.15
2022-12-27T21:33:50.867Z,3.17
2022-12-27T21:36:20.416Z,3.40
2022-12-27T21:38:49.857Z,3.80
2022-12-27T21:41:19.306Z,4.15
2022-12-27T21:43:48.812Z,3.63
2022-12-27T21:46:18.396Z,4.22
2022-12-27T21:48:46.068Z,3.95
2022-12-27T21:51:16.092Z,4.75
2022-12-27T21:53:43.823Z,4.82
2022-12-27T21:56:13.895Z,3.85
2022-12-27T21:58:42.779Z,4.30
2022-12-27T22:01:13.870Z,4.97
2022-12-27T22:03:44.648Z,4.03
2022-12-27T22:06:13.201Z,3.72
2022-12-27T22:08:41.626Z,4.53
2022-12-27T22:11:09.716Z,4.28
2022-12-27T22:13:38.892Z,4.80
2022-12-27T22:16:09.418Z,3.85
2022-12-27T22:18:41.285Z,4.70
2022-12-27T22:21:09.527Z,3.83
2022-12-27T22:23:39.778Z,8.00
2022-12-27T22:26:11.900Z,5.35
2022-12-27T22:28:41.145Z,4.57
2022-12-27T22:31:10.491Z,4.60
2022-12-27T22:33:38.714Z,4.35
2022-12-27T22:36:08.365Z,4.47
2022-12-27T22:38:36.911Z,4.35
2022-12-27T22:41:05.875Z,4.10
2022-12-27T22:43:33.376Z,4.43
2022-12-27T22:46:06.460Z,4.22
2022-12-27T22:48:34.426Z,3.63
2022-12-27T22:51:07.322Z,3.50
2022-12-27T22:53:35.024Z,3.60
2022-12-27T22:56:02.587Z,4.30
2022-12-27T22:58:32.137Z,4.13
2022-12-27T23:01:00.572Z,3.78
2022-12-27T23:03:29.436Z,4.78
2022-12-27T23:05:58.384Z,4.40
2022-12-27T23:08:26.079Z,4.70
2022-12-27T23:10:53.656Z,4.63
2022-12-27T23:13:22.926Z,4.88
2022-12-27T23:15:57.282Z,4.70
2022-12-27T23:18:25.103Z,4.82
2022-12-27T23:21:21.595Z,4.65
2022-12-27T23:23:42.569Z,5.10
2022-12-27T23:26:13.785Z,4.63
2022-12-27T23:28:43.424Z,4.78
2022-12-27T23:31:12.074Z,4.28
2022-12-27T23:33:40.580Z,4.30
2022-12-27T23:36:10.935Z,4.75
2022-12-27T23:38:38.855Z,3.97
2022-12-27T23:41:07.987Z,4.50
2022-12-27T23:43:55.014Z,3.80
2022-12-27T23:46:28.197Z,4.50
2022-12-27T23:48:56.808Z,4.05
2022-12-27T23:51:25.957Z,4.07
2022-12-27T23:53:53.915Z,4.00
2022-12-27T23:56:23.314Z,3.55
2022-12-27T23:58:52.667Z,4.13
